Time;durP1;ratioP1;P1;durP2;ratioP2;P2;SDS_P1;SDS_P2;PMS_P1;PMS_P2;Temp;Humidity;BMP_temperature;BMP_pressure;BME280_temperature;BME280_humidity;BME280_pressure;Samples;Min_cycle;Max_cycle;Signal;HPM_P1;HPM_P2
2023/05/14 00:00:23;;;;;;;10.03;9.43;;;16.10;56.20;;;;;;20716;6841;67385;-75
2023/05/14 00:02:49;;;;;;;9.70;9.00;;;15.90;56.60;;;;;;20748;6841;72515;-75
2023/05/14 00:05:16;;;;;;;11.02;10.23;;;15.50;57.20;;;;;;20539;6841;308460;-76
2023/05/14 00:07:41;;;;;;;9.00;8.40;;;15.50;57.50;;;;;;20748;6841;68290;-76
2023/05/14 00:10:07;;;;;;;9.30;8.60;;;15.30;57.60;;;;;;20743;6841;67866;-76
2023/05/14 00:12:32;;;;;;;9.83;9.20;;;15.10;58.10;;;;;;20751;6841;67842;-76
2023/05/14 00:14:58;;;;;;;10.87;10.27;;;14.80;58.60;;;;;;20534;6841;323290;-75
2023/05/14 00:17:24;;;;;;;9.17;8.47;;;14.90;59.50;;;;;;20744;6841;67891;-76
2023/05/14 00:19:50;;;;;;;10.27;9.53;;;14.90;58.90;;;;;;20537;6841;280391;-76
2023/05/14 00:22:15;;;;;;;10.43;9.68;;;15.00;59.10;;;;;;20533;6841;283895;-77
2023/05/14 00:24:41;;;;;;;9.68;9.07;;;15.30;58.50;;;;;;20758;6841;76991;-79
2023/05/14 00:27:06;;;;;;;12.20;11.30;;;15.20;58.40;;;;;;20541;6841;347088;-76
2023/05/14 00:29:32;;;;;;;11.88;11.00;;;15.30;58.40;;;;;;20754;6841;68189;-76
2023/05/14 00:31:59;;;;;;;10.07;9.48;;;15.20;58.30;;;;;;20763;6841;70099;-77
2023/05/14 00:34:25;;;;;;;12.57;11.70;;;15.00;58.70;;;;;;20541;6841;309320;-76
2023/05/14 00:36:50;;;;;;;11.47;10.67;;;15.00;58.90;;;;;;20751;6841;67339;-76
2023/05/14 00:39:16;;;;;;;12.83;11.93;;;15.00;58.80;;;;;;20529;6841;278275;-76
2023/05/14 00:41:41;;;;;;;13.48;12.52;;;15.10;59.00;;;;;;20526;6841;306572;-76
2023/05/14 00:44:08;;;;;;;11.60;10.80;;;15.20;58.30;;;;;;20728;6841;67390;-76
2023/05/14 00:46:33;;;;;;;11.33;10.43;;;15.20;58.20;;;;;;20729;6841;70316;-76
2023/05/14 00:49:00;;;;;;;13.23;12.32;;;15.00;58.90;;;;;;20514;6841;308151;-76
2023/05/14 00:51:25;;;;;;;11.50;10.60;;;14.90;58.90;;;;;;20725;6841;68100;-76
2023/05/14 00:53:51;;;;;;;11.73;10.80;;;14.90;58.90;;;;;;20729;6841;67452;-75
2023/05/14 00:56:16;;;;;;;13.07;12.27;;;14.70;59.30;;;;;;20533;6841;310939;-76
2023/05/14 00:58:42;;;;;;;14.25;13.25;;;14.80;59.50;;;;;;20537;6841;278628;-76
2023/05/14 01:01:07;;;;;;;13.40;12.40;;;15.00;58.90;;;;;;20536;6841;280407;-76
2023/05/14 01:03:33;;;;;;;12.97;12.17;;;15.30;58.30;;;;;;20533;6841;312523;-76
2023/05/14 01:06:06;;;;;;;13.90;12.90;;;15.50;57.50;;;;;;20541;6840;278618;-76
2023/05/14 01:08:48;;;;;;;11.67;10.80;;;15.60;57.00;;;;;;20751;6840;68362;-76
2023/05/14 01:11:40;;;;;;;11.90;11.00;;;15.40;57.40;;;;;;20746;6841;68130;-76
2023/05/14 01:14:20;;;;;;;12.53;11.73;;;15.00;58.20;;;;;;20521;6841;304027;-77
2023/05/14 01:16:45;;;;;;;12.53;11.63;;;14.90;58.40;;;;;;20747;6841;71188;-77
2023/05/14 01:19:11;;;;;;;12.73;11.83;;;14.90;58.40;;;;;;20530;6841;305023;-77
2023/05/14 01:21:39;;;;;;;12.60;11.40;;;14.90;59.40;;;;;;20705;6841;67590;-77
2023/05/14 01:24:03;;;;;;;12.17;11.00;;;14.90;58.80;;;;;;20733;6841;67307;-77
2023/05/14 01:26:30;;;;;;;11.50;10.77;;;14.60;59.20;;;;;;20739;6841;68214;-77
2023/05/14 01:28:54;;;;;;;10.97;10.27;;;14.40;59.70;;;;;;20741;6841;67866;-77
2023/05/14 01:31:23;;;;;;;13.43;12.48;;;14.20;60.10;;;;;;20519;6841;310915;-77
2023/05/14 01:33:45;;;;;;;13.77;12.88;;;14.40;60.10;;;;;;20521;6841;278549;-77
2023/05/14 01:36:10;;;;;;;11.90;11.00;;;14.80;59.30;;;;;;20736;6841;67815;-77
2023/05/14 01:38:36;;;;;;;13.48;12.63;;;14.70;59.10;;;;;;20533;6841;337620;-79
2023/05/14 01:41:02;;;;;;;11.30;10.60;;;14.80;59.00;;;;;;20750;6841;67446;-76
2023/05/14 01:43:27;;;;;;;12.20;11.35;;;14.70;58.90;;;;;;20535;6841;341045;-76
2023/05/14 01:45:54;;;;;;;11.63;10.80;;;14.80;58.90;;;;;;20758;6841;68340;-76
2023/05/14 01:48:18;;;;;;;9.23;8.63;;;14.70;59.00;;;;;;20751;6841;67312;-78
2023/05/14 01:50:44;;;;;;;10.40;9.70;;;14.40;59.40;;;;;;20747;6841;68441;-76
2023/05/14 01:53:09;;;;;;;11.57;10.57;;;14.10;59.90;;;;;;20745;6841;67742;-76
2023/05/14 01:55:35;;;;;;;12.00;11.30;;;14.00;60.30;;;;;;20534;6841;337715;-76
2023/05/14 01:58:02;;;;;;;9.93;9.27;;;14.10;60.50;;;;;;20753;6841;72400;-76
2023/05/14 02:00:27;;;;;;;12.20;11.30;;;14.10;60.20;;;;;;20530;6841;307220;-79
2023/05/14 02:02:53;;;;;;;10.77;10.07;;;14.30;60.00;;;;;;20733;6841;68069;-76
2023/05/14 02:05:19;;;;;;;10.40;9.53;;;14.00;60.10;;;;;;20739;6841;71709;-77
2023/05/14 02:07:45;;;;;;;12.33;11.57;;;14.00;60.10;;;;;;20537;6841;308071;-77
2023/05/14 02:10:10;;;;;;;12.48;11.57;;;14.20;59.90;;;;;;20521;6841;340396;-79
2023/05/14 02:12:36;;;;;;;12.50;11.27;;;14.30;59.10;;;;;;20754;6841;70027;-79
2023/05/14 02:15:02;;;;;;;89.87;16.03;;;14.30;59.10;;;;;;20542;6841;323172;-76
2023/05/14 02:17:28;;;;;;;44.95;16.08;;;14.40;59.00;;;;;;20532;6839;337647;-76
2023/05/14 02:19:53;;;;;;;64.65;14.80;;;14.60;59.10;;;;;;20539;6840;312103;-76
2023/05/14 02:22:19;;;;;;;271.40;18.00;;;14.80;59.00;;;;;;20535;6841;307225;-76
2023/05/14 02:24:44;;;;;;;329.57;20.27;;;14.90;58.60;;;;;;20541;6841;308272;-76
2023/05/14 02:27:11;;;;;;;166.40;14.73;;;15.00;57.90;;;;;;20542;6841;281864;-76
2023/05/14 02:29:36;;;;;;;116.33;13.40;;;15.10;57.10;;;;;;20528;6841;312663;-76
2023/05/14 02:32:02;;;;;;;10.30;9.50;;;15.10;57.10;;;;;;20747;6841;67800;-76
2023/05/14 02:34:27;;;;;;;12.20;11.40;;;14.80;57.60;;;;;;20534;6841;310345;-76
2023/05/14 02:36:53;;;;;;;10.90;10.07;;;14.70;57.90;;;;;;20747;6841;72438;-76
2023/05/14 02:39:18;;;;;;;11.77;11.05;;;14.50;58.30;;;;;;20536;6841;338400;-76
2023/05/14 02:41:44;;;;;;;11.63;10.83;;;14.50;58.70;;;;;;20749;6841;67436;-76
2023/05/14 02:44:10;;;;;;;12.27;11.47;;;14.40;59.00;;;;;;20539;6841;313234;-76
2023/05/14 02:46:35;;;;;;;10.57;9.87;;;14.40;59.00;;;;;;20748;6841;67326;-76
2023/05/14 02:49:01;;;;;;;12.90;12.10;;;14.30;59.20;;;;;;20539;6841;307678;-76
2023/05/14 02:51:26;;;;;;;13.30;12.50;;;14.40;59.40;;;;;;20526;6841;308080;-76
2023/05/14 02:53:53;;;;;;;11.67;10.87;;;14.90;58.50;;;;;;20535;6841;323638;-76
2023/05/14 02:56:20;;;;;;;13.10;11.90;;;14.90;58.60;;;;;;20749;6841;70544;-76
2023/05/14 02:58:45;;;;;;;11.70;10.87;;;14.80;58.70;;;;;;20755;6841;67501;-76
2023/05/14 03:01:10;;;;;;;10.85;10.05;;;14.50;59.20;;;;;;20753;6841;67822;-76
2023/05/14 03:03:37;;;;;;;11.80;10.80;;;14.20;59.80;;;;;;20750;6841;72508;-76
2023/05/14 03:06:03;;;;;;;25.65;23.80;;;14.00;60.20;;;;;;20540;6841;282647;-75
2023/05/14 03:08:29;;;;;;;40.03;36.83;;;14.20;60.60;;;;;;20528;6841;326404;-76
2023/05/14 03:10:55;;;;;;;11.60;10.90;;;14.50;60.20;;;;;;20749;6841;67812;-76
2023/05/14 03:13:21;;;;;;;11.00;10.10;;;14.50;60.10;;;;;;20754;6841;67796;-76
2023/05/14 03:15:47;;;;;;;13.07;12.27;;;14.30;60.50;;;;;;20537;6841;278602;-76
2023/05/14 03:18:13;;;;;;;11.70;10.90;;;14.40;60.50;;;;;;20747;6841;67903;-76
2023/05/14 03:20:39;;;;;;;11.17;10.47;;;14.30;60.70;;;;;;20740;6841;67842;-76
2023/05/14 03:23:05;;;;;;;13.63;12.73;;;14.30;60.80;;;;;;20533;6841;303821;-76
2023/05/14 03:25:30;;;;;;;11.07;10.33;;;14.40;60.80;;;;;;20748;6841;68710;-76
2023/05/14 03:27:56;;;;;;;13.05;12.27;;;14.40;60.70;;;;;;20540;6841;311259;-76
2023/05/14 03:30:21;;;;;;;13.03;12.07;;;14.60;60.40;;;;;;20748;6839;71201;-76
2023/05/14 03:32:48;;;;;;;12.23;11.33;;;14.40;60.10;;;;;;20749;6841;71873;-76
2023/05/14 03:35:13;;;;;;;16.08;14.87;;;14.40;60.60;;;;;;20531;6841;336747;-76
2023/05/14 03:37:39;;;;;;;15.07;13.97;;;14.80;59.90;;;;;;20538;6841;307761;-76
2023/05/14 03:40:07;;;;;;;13.55;12.68;;;14.80;59.80;;;;;;20538;6841;342135;-76
2023/05/14 03:42:33;;;;;;;12.80;11.77;;;15.10;59.30;;;;;;20758;6841;67870;-76
2023/05/14 03:44:59;;;;;;;13.30;12.30;;;14.70;59.80;;;;;;20756;6841;67855;-77
2023/05/14 03:47:24;;;;;;;12.73;11.73;;;14.60;59.70;;;;;;20753;6841;68706;-76
2023/05/14 03:49:50;;;;;;;16.03;14.87;;;14.40;60.30;;;;;;20540;6841;278225;-76
2023/05/14 03:52:15;;;;;;;12.90;11.80;;;14.60;60.30;;;;;;20744;6841;71137;-76
2023/05/14 03:54:41;;;;;;;13.87;12.97;;;14.50;60.10;;;;;;20526;6841;282847;-76
2023/05/14 03:57:07;;;;;;;12.97;12.07;;;14.70;60.10;;;;;;20688;6841;70289;-76
2023/05/14 03:59:32;;;;;;;12.53;11.50;;;14.60;60.00;;;;;;20747;6841;67770;-78
2023/05/14 04:01:59;;;;;;;13.80;12.90;;;14.40;60.30;;;;;;20526;6841;306804;-77
2023/05/14 04:04:26;;;;;;;12.27;11.43;;;14.60;60.20;;;;;;20742;6841;71175;-77
2023/05/14 04:06:51;;;;;;;10.33;9.73;;;14.50;60.10;;;;;;20741;6841;67943;-76
2023/05/14 04:09:18;;;;;;;12.10;11.20;;;14.40;60.50;;;;;;20741;6841;70081;-76
2023/05/14 04:11:43;;;;;;;11.73;10.77;;;14.20;60.90;;;;;;20741;6841;68450;-76
2023/05/14 04:14:09;;;;;;;11.80;11.10;;;14.10;61.20;;;;;;20531;6841;282545;-76
2023/05/14 04:16:35;;;;;;;10.80;10.13;;;14.30;60.90;;;;;;20739;6841;68257;-76
2023/05/14 04:19:01;;;;;;;11.20;10.40;;;14.20;60.90;;;;;;20744;6841;71553;-76
2023/05/14 04:21:26;;;;;;;10.20;9.40;;;14.20;60.90;;;;;;20738;6841;90099;-76
2023/05/14 04:23:52;;;;;;;11.68;10.98;;;14.10;61.10;;;;;;20524;6841;312494;-76
2023/05/14 04:26:17;;;;;;;10.55;9.68;;;14.30;60.80;;;;;;20755;6841;67421;-76
2023/05/14 04:28:43;;;;;;;10.27;9.57;;;14.40;60.60;;;;;;20750;6841;72082;-77
2023/05/14 04:31:10;;;;;;;11.73;11.02;;;14.30;60.90;;;;;;20539;6841;295603;-78
2023/05/14 04:33:36;;;;;;;11.13;10.40;;;14.40;60.40;;;;;;20743;6841;68853;-76
2023/05/14 04:36:01;;;;;;;10.00;9.40;;;14.50;60.30;;;;;;20737;6841;70731;-77
2023/05/14 04:38:28;;;;;;;9.60;9.00;;;14.30;60.40;;;;;;20739;6841;67821;-76
2023/05/14 04:40:53;;;;;;;11.50;10.70;;;14.20;60.80;;;;;;20531;6840;278893;-76
2023/05/14 04:43:19;;;;;;;10.98;10.35;;;14.40;60.20;;;;;;20537;6840;277212;-76
2023/05/14 04:45:45;;;;;;;10.63;9.93;;;14.70;59.20;;;;;;20534;6841;285961;-77
2023/05/14 04:48:11;;;;;;;10.02;9.52;;;15.00;58.60;;;;;;20528;6841;337137;-77
2023/05/14 04:50:37;;;;;;;11.27;10.57;;;15.30;57.70;;;;;;20530;6841;293342;-77
2023/05/14 04:53:03;;;;;;;9.53;8.73;;;15.40;57.60;;;;;;20747;6841;68379;-78
2023/05/14 04:55:28;;;;;;;11.15;10.18;;;15.20;57.90;;;;;;20532;6841;311499;-75
2023/05/14 04:57:54;;;;;;;10.73;10.03;;;15.20;59.10;;;;;;20529;6841;296125;-77
2023/05/14 05:00:20;;;;;;;9.53;8.73;;;15.30;58.20;;;;;;20736;6841;67957;-77
2023/05/14 05:02:45;;;;;;;11.52;10.50;;;15.20;58.40;;;;;;20540;6841;307668;-79
2023/05/14 05:05:12;;;;;;;11.77;10.87;;;15.30;58.00;;;;;;20529;6841;282934;-76
2023/05/14 05:07:37;;;;;;;11.15;10.43;;;15.30;58.00;;;;;;20522;6841;282445;-75
2023/05/14 05:10:03;;;;;;;11.47;10.77;;;15.50;57.70;;;;;;20527;6841;311207;-75
2023/05/14 05:12:30;;;;;;;10.07;9.37;;;15.60;57.50;;;;;;20737;6841;68406;-76
2023/05/14 05:14:56;;;;;;;11.18;10.48;;;15.40;57.90;;;;;;20541;6841;281961;-77
2023/05/14 05:17:22;;;;;;;10.77;10.17;;;15.50;58.20;;;;;;20519;6841;311154;-77
2023/05/14 05:19:48;;;;;;;10.93;10.32;;;15.50;57.50;;;;;;20530;6841;281140;-76
2023/05/14 05:22:14;;;;;;;11.47;10.60;;;15.70;56.90;;;;;;20520;6841;311802;-74
2023/05/14 05:24:39;;;;;;;11.33;10.53;;;15.80;56.60;;;;;;20523;6841;304485;-75
2023/05/14 05:27:05;;;;;;;11.40;10.70;;;15.90;56.40;;;;;;20522;6841;337231;-75
2023/05/14 05:29:32;;;;;;;16.70;15.10;;;16.00;56.30;;;;;;20735;6841;71508;-75
2023/05/14 05:32:02;;;;;;;11.27;10.40;;;15.70;56.50;;;;;;20737;6841;67794;-78
2023/05/14 05:34:27;;;;;;;10.13;9.33;;;15.40;57.20;;;;;;20733;6841;68614;-77
2023/05/14 05:36:53;;;;;;;11.57;10.77;;;15.00;58.70;;;;;;20522;6841;308462;-74
2023/05/14 05:39:19;;;;;;;13.20;12.20;;;15.00;58.50;;;;;;20523;6841;305752;-77
2023/05/14 05:41:45;;;;;;;13.55;12.65;;;15.20;58.50;;;;;;20529;6841;307755;-73
2023/05/14 05:44:10;;;;;;;12.63;11.93;;;15.30;58.30;;;;;;20519;6841;340392;-75
2023/05/14 05:46:36;;;;;;;13.17;12.27;;;15.40;58.50;;;;;;20522;6841;312619;-73
2023/05/14 05:49:04;;;;;;;11.93;11.12;;;15.50;58.00;;;;;;20527;6841;312569;-76
2023/05/14 05:51:30;;;;;;;12.10;11.40;;;15.60;57.90;;;;;;20524;6841;312228;-73
2023/05/14 05:53:56;;;;;;;11.80;10.70;;;15.50;57.80;;;;;;20743;6839;94880;-74
2023/05/14 05:56:21;;;;;;;12.45;11.70;;;15.30;58.30;;;;;;20533;6841;278910;-71
2023/05/14 05:58:47;;;;;;;11.80;11.10;;;15.20;58.10;;;;;;20532;6841;346957;-71
2023/05/14 06:01:12;;;;;;;12.55;11.73;;;15.40;58.40;;;;;;20536;6841;290267;-71
2023/05/14 06:03:38;;;;;;;12.20;11.50;;;15.50;58.40;;;;;;20501;6841;303855;-73
2023/05/14 06:06:04;;;;;;;11.00;10.20;;;15.60;57.70;;;;;;20751;6841;73649;-73
2023/05/14 06:08:30;;;;;;;10.77;10.07;;;15.30;57.90;;;;;;20754;6841;67372;-72
2023/05/14 06:10:55;;;;;;;10.17;9.57;;;14.70;59.50;;;;;;20752;6841;68047;-71
2023/05/14 06:13:22;;;;;;;12.95;12.07;;;14.70;60.90;;;;;;20545;6841;308151;-69
2023/05/14 06:15:47;;;;;;;13.70;12.70;;;14.70;60.10;;;;;;20531;6841;307773;-72
2023/05/14 06:18:13;;;;;;;11.50;10.63;;;15.00;59.30;;;;;;20745;6841;67830;-72
2023/05/14 06:20:40;;;;;;;13.95;12.95;;;15.00;59.50;;;;;;20544;6841;281727;-71
2023/05/14 06:23:06;;;;;;;11.63;10.90;;;15.00;59.50;;;;;;20738;6841;79771;-71
2023/05/14 06:25:30;;;;;;;10.07;9.48;;;14.90;59.80;;;;;;20741;6841;67865;-71
2023/05/14 06:27:56;;;;;;;11.33;10.43;;;14.70;60.40;;;;;;20746;6841;68102;-72
2023/05/14 06:30:22;;;;;;;12.60;11.80;;;14.60;61.10;;;;;;20541;6841;308082;-72
2023/05/14 06:32:47;;;;;;;14.13;13.23;;;14.80;61.00;;;;;;20528;6841;306155;-72
2023/05/14 06:35:13;;;;;;;11.63;10.83;;;15.10;60.00;;;;;;20744;6841;67449;-72
2023/05/14 06:37:39;;;;;;;11.67;10.77;;;15.10;60.00;;;;;;20700;6841;68349;-75
2023/05/14 06:40:06;;;;;;;14.80;13.80;;;15.00;61.30;;;;;;20527;6841;299911;-73
2023/05/14 06:42:31;;;;;;;13.47;12.27;;;15.00;61.20;;;;;;20733;6841;71851;-74
2023/05/14 06:44:58;;;;;;;11.97;11.10;;;15.00;61.00;;;;;;20748;6841;72186;-73
2023/05/14 06:47:24;;;;;;;13.13;12.15;;;14.90;61.20;;;;;;20528;6841;315678;-73
2023/05/14 06:49:50;;;;;;;13.90;13.00;;;15.00;60.60;;;;;;20539;6841;311799;-72
2023/05/14 06:52:15;;;;;;;14.20;13.10;;;15.30;59.70;;;;;;20536;6841;307250;-72
2023/05/14 06:54:41;;;;;;;12.80;11.83;;;15.40;59.80;;;;;;20729;6841;67366;-72
2023/05/14 06:57:07;;;;;;;12.00;11.20;;;15.40;58.90;;;;;;20716;6841;67920;-71
2023/05/14 06:59:33;;;;;;;11.23;10.43;;;15.10;59.50;;;;;;20742;6841;70613;-73
2023/05/14 07:02:02;;;;;;;14.30;13.30;;;15.00;61.40;;;;;;20523;6841;312002;-73
2023/05/14 07:04:26;;;;;;;12.90;12.00;;;15.00;60.80;;;;;;20559;6839;336801;-72
2023/05/14 07:06:52;;;;;;;10.50;9.87;;;15.30;60.20;;;;;;20745;6841;68463;-74
2023/05/14 07:09:18;;;;;;;12.73;11.90;;;15.30;59.60;;;;;;20540;6841;278643;-74
2023/05/14 07:11:44;;;;;;;12.30;11.60;;;15.30;59.60;;;;;;20529;6841;308080;-75
2023/05/14 07:14:09;;;;;;;11.20;10.37;;;15.50;58.50;;;;;;20737;6841;67985;-74
2023/05/14 07:16:35;;;;;;;11.60;10.80;;;15.40;58.70;;;;;;20523;6841;282757;-75
2023/05/14 07:19:01;;;;;;;10.43;9.73;;;15.40;58.60;;;;;;20739;6841;68122;-75
2023/05/14 07:21:26;;;;;;;9.53;8.93;;;15.30;58.90;;;;;;20743;6841;68372;-75
2023/05/14 07:23:52;;;;;;;11.57;10.88;;;15.10;59.30;;;;;;20530;6841;308441;-74
2023/05/14 07:26:17;;;;;;;9.77;9.07;;;15.20;59.80;;;;;;20570;6841;67785;-74
2023/05/14 07:28:43;;;;;;;10.53;9.83;;;15.20;59.60;;;;;;20726;6841;68349;-74
2023/05/14 07:31:09;;;;;;;12.60;11.80;;;15.00;60.10;;;;;;20444;6841;311846;-78
2023/05/14 07:33:35;;;;;;;12.75;11.95;;;15.50;58.70;;;;;;20481;6841;278614;-76
2023/05/14 07:36:00;;;;;;;11.87;11.17;;;15.50;58.70;;;;;;20679;6841;67982;-75
2023/05/14 07:38:26;;;;;;;10.90;10.00;;;15.40;58.50;;;;;;20708;6841;73756;-75
2023/05/14 07:40:51;;;;;;;13.10;12.27;;;15.20;59.10;;;;;;20502;6841;282784;-75
2023/05/14 07:43:17;;;;;;;13.32;12.52;;;15.30;58.60;;;;;;20519;6841;283278;-76
2023/05/14 07:45:43;;;;;;;13.77;12.87;;;15.90;58.90;;;;;;20531;6841;337167;-75
2023/05/14 07:48:10;;;;;;;12.57;11.70;;;15.90;58.20;;;;;;20747;6841;67916;-77
2023/05/14 07:50:34;;;;;;;13.90;12.90;;;15.90;58.20;;;;;;20539;6841;308535;-77
2023/05/14 07:53:00;;;;;;;12.25;11.45;;;15.90;57.60;;;;;;20745;6841;68869;-74
2023/05/14 07:55:26;;;;;;;14.27;13.37;;;15.90;57.70;;;;;;20523;6841;280985;-75
2023/05/14 07:57:53;;;;;;;14.77;13.77;;;15.90;57.70;;;;;;20526;6841;307662;-74
2023/05/14 08:00:19;;;;;;;13.23;12.23;;;16.10;57.70;;;;;;20750;6841;67787;-74
2023/05/14 08:02:45;;;;;;;12.27;11.37;;;16.00;57.90;;;;;;20745;6841;67800;-77
2023/05/14 08:05:10;;;;;;;14.67;13.77;;;15.80;58.50;;;;;;20528;6841;337220;-74
2023/05/14 08:07:36;;;;;;;13.17;12.07;;;15.90;58.30;;;;;;20743;6841;67323;-75
2023/05/14 08:10:01;;;;;;;14.17;13.17;;;15.90;58.70;;;;;;20532;6841;302089;-76
2023/05/14 08:12:29;;;;;;;12.90;12.00;;;16.10;58.40;;;;;;20740;6841;67342;-77
2023/05/14 08:14:55;;;;;;;14.98;13.88;;;16.50;59.10;;;;;;20530;6839;312138;-77
2023/05/14 08:17:20;;;;;;;13.57;12.47;;;16.40;58.40;;;;;;20747;6840;68167;-76
2023/05/14 08:19:46;;;;;;;14.02;13.00;;;16.60;58.40;;;;;;20538;6841;278095;-75
2023/05/14 08:22:12;;;;;;;13.53;12.47;;;16.80;57.30;;;;;;20741;6841;69424;-75
2023/05/14 08:24:37;;;;;;;12.80;11.80;;;17.00;57.50;;;;;;20745;6841;67853;-77
2023/05/14 08:27:03;;;;;;;14.05;13.05;;;16.90;57.70;;;;;;20527;6841;312210;-76
2023/05/14 08:29:29;;;;;;;14.87;13.93;;;17.10;55.80;;;;;;20539;6841;307785;-78
2023/05/14 08:31:56;;;;;;;13.43;12.33;;;17.40;56.10;;;;;;20751;6841;69668;-78
2023/05/14 08:34:21;;;;;;;14.70;13.70;;;17.50;56.30;;;;;;20533;6841;332898;-75
2023/05/14 08:36:47;;;;;;;14.57;13.57;;;17.60;56.30;;;;;;20542;6841;336781;-77
2023/05/14 08:39:14;;;;;;;14.07;13.00;;;17.90;55.20;;;;;;20542;6841;280601;-76
2023/05/14 08:41:40;;;;;;;13.95;13.05;;;18.20;54.50;;;;;;20538;6841;307714;-77
2023/05/14 08:44:12;;;;;;;14.13;13.20;;;18.50;53.60;;;;;;20540;6841;308051;-77
2023/05/14 08:46:37;;;;;;;14.50;13.60;;;18.70;51.80;;;;;;20531;6841;315577;-77
2023/05/14 08:49:16;;;;;;;12.47;11.57;;;18.80;51.70;;;;;;20747;6841;68333;-74
2023/05/14 08:51:41;;;;;;;14.75;13.75;;;18.70;52.50;;;;;;20517;6841;307695;-80
2023/05/14 08:54:08;;;;;;;15.10;14.10;;;18.70;51.80;;;;;;20527;6841;337738;-78
2023/05/14 08:56:35;;;;;;;14.90;13.90;;;18.70;51.80;;;;;;20534;6841;289194;-78
2023/05/14 08:59:01;;;;;;;14.13;13.27;;;18.90;51.40;;;;;;20533;6841;308580;-83
2023/05/14 09:01:26;;;;;;;12.73;11.80;;;18.80;51.40;;;;;;20749;6841;69073;-79
2023/05/14 09:03:53;;;;;;;12.88;11.77;;;18.40;53.10;;;;;;20750;6841;73124;-76
2023/05/14 09:06:18;;;;;;;14.93;13.85;;;18.30;53.00;;;;;;20530;6841;343452;-74
2023/05/14 09:08:45;;;;;;;13.27;12.27;;;18.30;52.70;;;;;;20742;6841;68285;-76
2023/05/14 09:11:11;;;;;;;13.10;12.20;;;18.20;53.10;;;;;;20744;6841;70144;-74
2023/05/14 09:13:37;;;;;;;12.97;11.97;;;18.00;53.60;;;;;;20741;6841;72398;-73
2023/05/14 09:16:02;;;;;;;15.27;14.27;;;17.80;54.20;;;;;;20539;6841;278984;-72
2023/05/14 09:18:28;;;;;;;15.07;14.13;;;17.90;54.10;;;;;;20531;6841;308079;-75
2023/05/14 09:20:53;;;;;;;15.40;14.50;;;18.20;52.80;;;;;;20530;6841;304613;-74
2023/05/14 09:23:19;;;;;;;13.17;12.27;;;18.50;53.00;;;;;;20743;6841;67671;-74
2023/05/14 09:25:44;;;;;;;13.97;12.97;;;18.60;53.60;;;;;;20748;6841;72043;-74
2023/05/14 09:28:11;;;;;;;12.10;11.23;;;18.40;54.30;;;;;;20742;6839;70329;-76
2023/05/14 09:30:37;;;;;;;14.90;14.00;;;18.60;52.40;;;;;;20548;6841;307689;-77
2023/05/14 09:33:06;;;;;;;14.43;13.53;;;18.60;52.80;;;;;;20545;6841;289673;-77
2023/05/14 09:35:31;;;;;;;12.43;11.67;;;18.90;50.60;;;;;;20745;6841;67316;-75
2023/05/14 09:37:56;;;;;;;13.70;12.90;;;18.90;51.40;;;;;;20532;6841;300266;-75
2023/05/14 09:40:22;;;;;;;12.30;11.50;;;19.10;51.40;;;;;;20750;6841;67405;-75
2023/05/14 09:42:48;;;;;;;13.40;12.50;;;19.20;52.00;;;;;;20523;6841;312155;-74
2023/05/14 09:45:13;;;;;;;12.13;11.33;;;19.40;50.30;;;;;;20738;6841;67709;-75
2023/05/14 09:47:38;;;;;;;12.27;11.47;;;19.40;50.90;;;;;;20750;6841;67353;-76
2023/05/14 09:50:04;;;;;;;13.97;13.13;;;19.30;52.20;;;;;;20537;6841;282817;-77
2023/05/14 09:52:31;;;;;;;14.20;13.40;;;19.70;49.60;;;;;;20531;6841;308579;-79
2023/05/14 09:54:56;;;;;;;13.83;12.93;;;19.70;49.60;;;;;;20533;6841;309011;-77
2023/05/14 09:57:22;;;;;;;28.17;25.48;;;20.00;49.00;;;;;;20751;6841;67870;-80
2023/05/14 09:59:47;;;;;;;11.43;10.73;;;20.00;49.60;;;;;;20757;6841;66804;-73
2023/05/14 10:02:28;;;;;;;11.40;10.70;;;19.90;50.20;;;;;;20740;6841;68412;-73
2023/05/14 10:04:51;;;;;;;12.27;11.47;;;19.70;50.70;;;;;;20522;6841;309148;-70
2023/05/14 10:07:19;;;;;;;11.63;10.90;;;19.80;49.90;;;;;;20739;6841;66796;-73
2023/05/14 10:09:46;;;;;;;10.50;9.90;;;19.80;49.90;;;;;;20710;6841;67402;-77
2023/05/14 10:12:11;;;;;;;11.27;10.68;;;19.70;50.40;;;;;;20535;6841;342666;-74
2023/05/14 10:14:40;;;;;;;9.80;9.10;;;19.90;47.70;;;;;;20744;6841;67287;-76
2023/05/14 10:17:05;;;;;;;8.70;8.20;;;20.00;48.30;;;;;;20535;6841;315367;-72
2023/05/14 10:19:35;;;;;;;8.70;8.13;;;20.30;48.00;;;;;;20746;6841;66928;-82
2023/05/14 10:22:03;;;;;;;9.15;8.63;;;20.30;48.00;;;;;;20417;6841;337275;-77
2023/05/14 10:24:30;;;;;;;8.60;8.10;;;20.50;46.40;;;;;;20522;6841;307110;-78
2023/05/14 10:26:57;;;;;;;7.90;7.40;;;20.80;46.00;;;;;;20745;6841;67308;-78
2023/05/14 10:29:31;;;;;;;8.90;8.40;;;20.80;46.60;;;;;;20524;6841;338343;-76
2023/05/14 10:31:57;;;;;;;9.00;8.30;;;20.80;45.30;;;;;;20716;6841;67167;-76
2023/05/14 10:34:47;;;;;;;7.67;7.20;;;20.70;46.30;;;;;;20739;6841;67994;-75
2023/05/14 10:37:12;;;;;;;8.30;7.80;;;20.50;47.10;;;;;;20707;6841;70638;-74
2023/05/14 10:39:41;;;;;;;7.20;6.80;;;20.30;48.00;;;;;;20704;6839;68323;-77
2023/05/14 10:42:08;;;;;;;7.80;7.30;;;20.30;48.60;;;;;;20707;6841;67851;-76
2023/05/14 10:44:33;;;;;;;7.73;7.33;;;20.30;48.50;;;;;;20525;6841;308379;-73
2023/05/14 10:46:59;;;;;;;8.00;7.53;;;20.60;45.40;;;;;;20519;6841;308052;-75
2023/05/14 10:49:25;;;;;;;7.70;7.20;;;21.00;45.40;;;;;;20706;6841;68359;-75
2023/05/14 10:51:50;;;;;;;8.15;7.72;;;21.10;46.10;;;;;;20520;6841;282161;-78
2023/05/14 10:54:16;;;;;;;8.20;7.70;;;21.30;43.40;;;;;;20728;6841;67787;-76
2023/05/14 10:56:41;;;;;;;8.05;7.55;;;21.30;44.80;;;;;;20521;6841;308404;-76
2023/05/14 10:59:07;;;;;;;8.13;7.63;;;21.50;44.90;;;;;;20505;6841;341325;-75
2023/05/14 11:01:32;;;;;;;8.73;8.02;;;21.80;44.10;;;;;;20545;6841;277667;-76
2023/05/14 11:03:58;;;;;;;8.27;7.83;;;21.90;43.10;;;;;;20540;6841;308522;-74
2023/05/14 11:06:24;;;;;;;7.40;7.00;;;22.00;42.10;;;;;;20752;6841;67463;-74
2023/05/14 11:08:49;;;;;;;7.50;7.10;;;21.70;43.60;;;;;;20757;6841;67705;-73
2023/05/14 11:11:18;;;;;;;7.40;6.90;;;21.30;44.60;;;;;;20744;6841;68317;-74
2023/05/14 11:13:43;;;;;;;8.07;7.57;;;21.10;45.70;;;;;;20516;6841;298413;-74
2023/05/14 11:16:09;;;;;;;7.10;6.70;;;21.10;44.30;;;;;;20536;6841;279426;-76
2023/05/14 11:18:39;;;;;;;7.50;7.10;;;21.10;43.10;;;;;;20553;6841;340453;-77
2023/05/14 11:21:02;;;;;;;7.37;6.80;;;21.30;43.60;;;;;;20762;6841;68380;-77
2023/05/14 11:23:28;;;;;;;7.60;7.10;;;21.20;45.10;;;;;;20531;6841;342160;-77
2023/05/14 11:25:55;;;;;;;6.67;6.37;;;21.20;45.30;;;;;;20820;6841;67886;-78
2023/05/14 11:28:20;;;;;;;7.27;6.87;;;21.30;45.50;;;;;;20537;6841;310352;-77
2023/05/14 11:30:47;;;;;;;6.50;6.15;;;21.60;43.00;;;;;;20525;6841;341533;-78
2023/05/14 11:33:12;;;;;;;6.17;5.70;;;21.60;43.00;;;;;;20727;6841;68278;-79
2023/05/14 11:35:38;;;;;;;5.40;5.10;;;21.70;41.20;;;;;;20537;6841;307929;-77
2023/05/14 11:38:04;;;;;;;7.10;6.70;;;21.70;41.20;;;;;;20530;6841;312602;-79
2023/05/14 11:40:30;;;;;;;6.60;6.10;;;22.00;41.40;;;;;;20746;6841;67893;-79
2023/05/14 11:42:57;;;;;;;5.97;5.57;;;22.00;42.70;;;;;;20755;6841;67352;-80
2023/05/14 11:45:25;;;;;;;5.10;4.90;;;21.90;43.60;;;;;;20754;6841;68466;-79
2023/05/14 11:47:51;;;;;;;6.43;6.10;;;21.70;43.80;;;;;;20539;6841;278929;-80
2023/05/14 11:50:16;;;;;;;7.30;6.90;;;21.80;42.40;;;;;;20514;6839;289954;-79
2023/05/14 11:52:42;;;;;;;7.10;6.60;;;22.10;42.20;;;;;;20748;6840;67395;-78
2023/05/14 11:55:11;;;;;;;6.47;6.00;;;22.10;43.10;;;;;;20740;6841;72811;-78
2023/05/14 11:57:36;;;;;;;6.53;6.13;;;21.90;43.70;;;;;;20738;6841;67323;-78
2023/05/14 12:00:05;;;;;;;6.80;6.30;;;21.60;44.10;;;;;;20446;6856;322624;-78
2023/05/14 12:02:31;;;;;;;6.23;5.83;;;21.80;43.40;;;;;;20513;6841;311907;-77
2023/05/14 12:04:57;;;;;;;6.20;5.90;;;22.00;42.10;;;;;;20674;6841;123463;-80
2023/05/14 12:07:23;;;;;;;5.93;5.60;;;22.00;42.60;;;;;;20673;6841;117604;-78
2023/05/14 12:09:49;;;;;;;7.00;6.60;;;21.70;43.20;;;;;;20658;6841;117258;-78
2023/05/14 12:12:17;;;;;;;6.87;6.47;;;21.50;43.70;;;;;;20483;6841;278611;-79
2023/05/14 12:14:44;;;;;;;6.40;5.90;;;21.50;42.50;;;;;;20481;6841;305710;-78
2023/05/14 12:17:11;;;;;;;6.40;6.00;;;21.80;43.00;;;;;;20672;6841;117259;-79
2023/05/14 12:19:37;;;;;;;6.70;6.27;;;21.80;43.70;;;;;;20720;6841;117615;-80